Time;durP1;ratioP1;P1;durP2;ratioP2;P2;SDS_P1;SDS_P2;PMS_P1;PMS_P2;Temp;Humidity;BMP_temperature;BMP_pressure;BME280_temperature;BME280_humidity;BME280_pressure;Samples;Min_cycle;Max_cycle;Signal;HPM_P1;HPM_P2
2022/10/10 00:00:41;;;;;;;3.10;1.40;;;5.90;99.90;5.60;101086.00;;;;4952747;28;116900;-59
2022/10/10 00:03:07;;;;;;;1.87;1.20;;;5.80;99.90;5.50;101080.00;;;;4952588;28;87906;-60
2022/10/10 00:05:35;;;;;;;1.43;1.17;;;5.70;99.90;5.40;101077.00;;;;4948921;28;91609;-61
2022/10/10 00:08:01;;;;;;;1.77;1.57;;;5.60;99.90;5.40;101077.00;;;;4951366;28;88698;-59
2022/10/10 00:10:27;;;;;;;2.07;1.43;;;5.60;99.90;5.30;101071.00;;;;4946559;28;109488;-60
2022/10/10 00:12:52;;;;;;;1.60;1.17;;;5.50;99.90;5.30;101074.00;;;;4946561;28;118772;-60
2022/10/10 00:15:18;;;;;;;2.10;1.60;;;5.50;99.90;5.20;101065.00;;;;4949877;28;109268;-59
2022/10/10 00:17:44;;;;;;;2.20;1.17;;;5.40;99.90;5.20;101067.00;;;;4956013;28;87775;-57
2022/10/10 00:20:12;;;;;;;3.57;1.40;;;5.50;99.90;5.10;101066.00;;;;4947962;28;117027;-58
2022/10/10 00:22:38;;;;;;;1.80;1.37;;;5.30;99.90;5.10;101064.00;;;;4950242;28;95798;-59
2022/10/10 00:25:06;;;;;;;1.07;1.07;;;5.30;99.90;5.00;101059.00;;;;4953614;28;109744;-58
2022/10/10 00:27:32;;;;;;;2.40;1.87;;;5.20;99.90;4.90;101058.00;;;;4945266;28;99609;-59
2022/10/10 00:29:58;;;;;;;1.73;1.30;;;5.50;99.90;4.80;101055.00;;;;4945498;28;111757;-58
2022/10/10 00:32:24;;;;;;;3.07;1.80;;;5.10;99.90;4.70;101047.00;;;;4947598;28;113831;-59
2022/10/10 00:34:50;;;;;;;1.93;1.27;;;5.00;99.90;4.70;101052.00;;;;4948295;28;110976;-60
2022/10/10 00:37:15;;;;;;;2.33;1.37;;;4.90;99.90;4.60;101055.00;;;;4953943;28;108677;-59
2022/10/10 00:39:41;;;;;;;1.83;1.07;;;4.90;99.90;4.60;101054.00;;;;4954723;28;92592;-59
2022/10/10 00:42:12;;;;;;;1.87;1.57;;;4.80;99.90;4.50;101051.00;;;;4947635;28;118403;-59
2022/10/10 00:44:39;;;;;;;2.03;1.50;;;4.70;99.90;4.40;101045.00;;;;4951282;28;87848;-60
2022/10/10 00:47:06;;;;;;;1.17;1.10;;;4.70;99.90;4.40;101048.00;;;;4948442;28;95027;-59
2022/10/10 00:49:34;;;;;;;1.97;1.73;;;5.10;99.90;4.30;101046.00;;;;4948023;28;107783;-60
2022/10/10 00:52:00;;;;;;;2.10;1.47;;;4.60;99.90;4.30;101042.00;;;;4946900;28;110643;-59
2022/10/10 00:54:27;;;;;;;1.17;1.07;;;4.50;99.90;4.20;101045.00;;;;4943214;28;102889;-59
2022/10/10 00:57:05;;;;;;;1.80;1.27;;;4.50;99.90;4.20;101042.00;;;;4949704;28;108270;-59
2022/10/10 00:59:33;;;;;;;1.17;1.10;;;4.40;99.90;4.10;101043.00;;;;4953704;28;108858;-57
2022/10/10 01:01:59;;;;;;;1.87;1.43;;;4.40;99.90;4.10;101047.00;;;;4950999;28;117663;-59
2022/10/10 01:04:38;;;;;;;1.43;1.33;;;4.80;99.90;4.00;101034.00;;;;4948076;28;109904;-60
2022/10/10 01:07:18;;;;;;;3.37;1.40;;;4.30;99.90;3.90;101040.00;;;;4953046;28;87860;-59
2022/10/10 01:09:46;;;;;;;1.13;1.10;;;4.20;99.90;3.90;101043.00;;;;4951324;28;105465;-60
2022/10/10 01:12:34;;;;;;;1.50;1.40;;;4.10;99.90;3.80;101039.00;;;;4946256;28;101676;-60
2022/10/10 01:15:17;;;;;;;1.10;0.90;;;4.10;99.90;3.80;101037.00;;;;4946945;28;100409;-59
2022/10/10 01:17:53;;;;;;;1.90;1.60;;;4.10;99.90;3.80;101042.00;;;;4952628;28;87940;-60
2022/10/10 01:21:09;;;;;;;6.20;1.57;;;3.70;99.90;3.70;101041.00;;;;4966379;28;99753;-60
2022/10/10 01:23:56;;;;;;;1.20;0.87;;;4.00;99.90;3.70;101022.00;;;;4950634;28;88723;-60
2022/10/10 01:27:09;;;;;;;6.37;1.80;;;4.00;99.90;3.70;101027.00;;;;4950795;28;87776;-59
2022/10/10 01:29:52;;;;;;;1.77;1.57;;;4.00;99.90;3.70;101025.00;;;;4949120;28;88067;-59
2022/10/10 01:32:43;;;;;;;2.40;1.47;;;4.00;99.90;3.60;101009.00;;;;4967049;28;92657;-60
2022/10/10 01:35:35;;;;;;;1.63;1.40;;;3.90;99.90;3.60;101012.00;;;;4967510;28;88585;-59
2022/10/10 01:38:43;;;;;;;1.70;1.60;;;3.90;99.90;3.60;101013.00;;;;4946174;28;87908;-60
2022/10/10 01:41:21;;;;;;;2.90;1.70;;;3.80;99.90;3.50;101006.00;;;;4954534;28;88054;-60
2022/10/10 01:43:55;;;;;;;3.20;1.50;;;3.80;99.90;3.50;101001.00;;;;4956451;28;99746;-59
2022/10/10 01:46:21;;;;;;;2.70;1.60;;;3.80;99.90;3.50;101006.00;;;;4945320;28;110808;-59
2022/10/10 01:48:50;;;;;;;1.80;1.43;;;3.70;99.90;3.50;101004.00;;;;4951653;28;89223;-58
2022/10/10 01:52:05;;;;;;;4.13;1.73;;;3.50;99.90;3.50;101004.00;;;;4949679;28;101676;-60
2022/10/10 01:54:45;;;;;;;2.30;1.67;;;3.70;99.90;3.50;100994.00;;;;4950667;28;102578;-60
2022/10/10 01:57:23;;;;;;;2.00;1.37;;;3.70;99.90;3.50;100996.00;;;;4952623;28;88710;-60
2022/10/10 02:00:07;;;;;;;3.47;1.60;;;3.70;99.90;3.50;100997.00;;;;4965608;28;87796;-59
2022/10/10 02:03:04;;;;;;;2.73;2.23;;;3.80;99.90;3.50;100987.00;;;;4951618;28;87769;-60
2022/10/10 02:06:02;;;;;;;2.20;1.57;;;3.80;99.90;3.50;100983.00;;;;4962244;28;106753;-60
2022/10/10 02:08:50;;;;;;;1.00;0.90;;;3.80;99.90;3.60;100986.00;;;;4971816;28;88371;-59
2022/10/10 02:11:15;;;;;;;1.27;1.20;;;3.80;99.90;3.60;100980.00;;;;4955506;28;91872;-60
2022/10/10 02:13:48;;;;;;;1.50;1.40;;;3.80;99.90;3.70;100979.00;;;;4946650;28;109085;-60
2022/10/10 02:16:38;;;;;;;2.10;1.90;;;3.90;99.90;3.60;100972.00;;;;4954867;28;95363;-60
2022/10/10 02:19:13;;;;;;;3.20;1.47;;;3.90;99.90;3.70;100967.00;;;;4950006;28;109956;-60
2022/10/10 02:21:40;;;;;;;3.67;1.40;;;3.90;99.90;3.70;100970.00;;;;4957120;28;87682;-59
2022/10/10 02:24:08;;;;;;;1.27;1.20;;;3.90;99.90;3.70;100961.00;;;;4952981;28;108162;-58
2022/10/10 02:26:36;;;;;;;1.30;1.20;;;3.90;99.90;3.70;100961.00;;;;4952437;28;88135;-60
2022/10/10 02:29:18;;;;;;;1.40;1.17;;;3.90;99.90;3.70;100954.00;;;;4948379;28;88694;-60
2022/10/10 02:32:28;;;;;;;2.23;1.70;;;3.90;99.90;3.70;100949.00;;;;4944350;28;87769;-60
2022/10/10 02:34:58;;;;;;;7.40;1.60;;;4.00;99.90;3.80;100949.00;;;;4912787;28;101216;-60
2022/10/10 02:37:25;;;;;;;1.87;1.73;;;4.00;99.90;3.80;100953.00;;;;4956113;28;107308;-60
2022/10/10 02:39:56;;;;;;;1.13;1.03;;;4.00;99.90;3.80;100945.00;;;;4955107;28;100824;-61
2022/10/10 02:42:23;;;;;;;3.03;2.10;;;4.00;99.90;3.80;100946.00;;;;4952550;28;101522;-60
2022/10/10 02:44:50;;;;;;;1.87;1.43;;;4.10;99.90;3.80;100943.00;;;;4965466;28;88871;-60
2022/10/10 02:47:16;;;;;;;2.77;1.73;;;4.00;99.90;3.80;100946.00;;;;4950687;28;118113;-61
2022/10/10 02:49:42;;;;;;;2.07;1.87;;;4.00;99.90;3.90;100945.00;;;;4968855;28;87966;-60
2022/10/10 02:52:09;;;;;;;1.73;1.60;;;4.10;99.90;3.90;100949.00;;;;4954895;28;110114;-60
2022/10/10 02:54:35;;;;;;;3.83;2.23;;;4.10;99.90;3.90;100939.00;;;;4951873;28;94358;-60
2022/10/10 02:57:00;;;;;;;8.47;2.20;;;4.40;99.90;3.90;100930.00;;;;4949932;28;118119;-60
2022/10/10 02:59:26;;;;;;;1.73;1.07;;;4.10;99.90;3.90;100933.00;;;;4954591;28;89906;-60
2022/10/10 03:01:52;;;;;;;2.97;1.40;;;4.10;99.90;4.00;100934.00;;;;4955494;28;109886;-60
2022/10/10 03:04:17;;;;;;;8.70;1.60;;;4.10;99.90;4.00;100934.00;;;;4950040;28;108695;-60
2022/10/10 03:06:44;;;;;;;1.33;1.23;;;4.20;99.90;4.00;100934.00;;;;4954800;28;118484;-60
2022/10/10 03:09:09;;;;;;;1.90;1.60;;;4.10;99.90;4.00;100919.00;;;;4950941;28;89688;-60
2022/10/10 03:11:35;;;;;;;3.57;1.43;;;4.20;99.90;4.00;100931.00;;;;4945306;28;109165;-59
2022/10/10 03:14:01;;;;;;;3.87;1.90;;;4.20;99.90;4.00;100917.00;;;;4952921;28;109414;-60
2022/10/10 03:16:26;;;;;;;1.83;1.67;;;4.20;99.90;4.00;100917.00;;;;4948394;28;118538;-60
2022/10/10 03:18:52;;;;;;;2.03;1.07;;;4.30;99.90;4.00;100922.00;;;;4950578;28;117254;-60
2022/10/10 03:21:18;;;;;;;1.47;1.37;;;4.20;99.90;4.00;100910.00;;;;4955156;28;107375;-60
2022/10/10 03:23:43;;;;;;;1.20;1.03;;;4.20;99.90;4.00;100912.00;;;;4951911;28;87912;-60
2022/10/10 03:26:09;;;;;;;1.60;1.20;;;4.20;99.90;4.00;100905.00;;;;4956086;28;115326;-60
2022/10/10 03:28:36;;;;;;;2.30;1.43;;;4.30;99.90;4.00;100904.00;;;;4951998;28;109533;-58
2022/10/10 03:31:02;;;;;;;1.73;1.63;;;4.30;99.90;4.10;100916.00;;;;4948186;28;87621;-61
2022/10/10 03:33:28;;;;;;;2.63;1.53;;;4.20;99.90;4.00;100907.00;;;;4954540;28;97342;-60
2022/10/10 03:35:54;;;;;;;0.67;0.67;;;4.30;99.90;4.10;100915.00;;;;4955897;28;88656;-59
2022/10/10 03:38:19;;;;;;;4.20;1.97;;;4.30;99.90;4.10;100903.00;;;;4949438;28;87919;-61
2022/10/10 03:40:45;;;;;;;2.70;1.70;;;4.30;99.90;4.10;100893.00;;;;4951346;28;100789;-60
2022/10/10 03:43:13;;;;;;;3.10;1.53;;;4.80;99.90;4.20;100891.00;;;;4955728;28;87739;-60
2022/10/10 03:45:44;;;;;;;2.47;1.70;;;4.30;99.90;4.20;100891.00;;;;4950226;28;97496;-60
2022/10/10 03:48:10;;;;;;;5.07;1.90;;;4.30;99.90;4.20;100888.00;;;;4946739;28;87789;-60
2022/10/10 03:50:36;;;;;;;2.67;2.17;;;4.40;99.90;4.20;100872.00;;;;4955926;28;87430;-60
2022/10/10 03:53:03;;;;;;;2.67;2.00;;;4.50;99.90;4.30;100867.00;;;;4949984;28;87640;-59
2022/10/10 03:55:29;;;;;;;3.93;1.80;;;4.50;99.90;4.30;100868.00;;;;4952673;28;89303;-60
2022/10/10 03:57:54;;;;;;;1.87;1.70;;;4.50;99.90;4.30;100866.00;;;;4952246;28;117399;-61
2022/10/10 04:00:20;;;;;;;1.67;1.27;;;4.50;99.90;4.40;100864.00;;;;4952038;28;111624;-61
2022/10/10 04:02:46;;;;;;;3.37;1.87;;;4.50;99.90;4.40;100863.00;;;;4951578;28;108217;-60
2022/10/10 04:05:12;;;;;;;2.63;1.40;;;4.60;99.90;4.40;100857.00;;;;4953381;28;88188;-61
2022/10/10 04:07:37;;;;;;;5.93;1.43;;;4.60;99.90;4.50;100866.00;;;;4950441;28;87959;-61
2022/10/10 04:10:04;;;;;;;3.67;1.97;;;4.70;99.90;4.60;100854.00;;;;4942302;28;88656;-61
2022/10/10 04:12:30;;;;;;;2.67;1.97;;;4.70;99.90;4.60;100853.00;;;;4943962;28;96571;-61
2022/10/10 04:14:56;;;;;;;1.83;1.67;;;4.80;99.90;4.60;100854.00;;;;4945532;28;118441;-61
2022/10/10 04:17:21;;;;;;;1.63;1.43;;;4.80;99.90;4.70;100850.00;;;;4952230;28;116849;-60
2022/10/10 04:19:47;;;;;;;2.07;1.73;;;4.80;99.90;4.70;100853.00;;;;4953048;28;109738;-61
2022/10/10 04:22:15;;;;;;;1.40;1.30;;;4.90;99.90;4.70;100846.00;;;;4948923;28;108364;-61
2022/10/10 04:24:41;;;;;;;1.23;1.13;;;4.90;99.90;4.80;100844.00;;;;4950122;28;89054;-61
2022/10/10 04:27:07;;;;;;;2.43;1.57;;;4.90;99.90;4.80;100835.00;;;;4952746;28;88765;-61
2022/10/10 04:29:32;;;;;;;5.60;1.80;;;4.90;99.90;4.80;100838.00;;;;4947908;28;111312;-62
2022/10/10 04:31:58;;;;;;;3.33;2.03;;;5.00;99.90;4.90;100833.00;;;;4950507;28;107522;-61
2022/10/10 04:34:24;;;;;;;1.77;0.93;;;5.00;99.90;4.90;100830.00;;;;4948687;28;117222;-61
2022/10/10 04:36:50;;;;;;;1.23;1.10;;;5.00;99.90;4.90;100824.00;;;;4948870;28;117579;-61
2022/10/10 04:39:15;;;;;;;2.00;1.80;;;5.00;99.90;5.00;100815.00;;;;4953062;28;110795;-60
2022/10/10 04:41:41;;;;;;;2.00;1.63;;;5.10;99.90;5.00;100816.00;;;;4961396;28;108179;-60
2022/10/10 04:44:07;;;;;;;1.60;1.50;;;5.10;99.90;5.00;100811.00;;;;4953149;28;89418;-60
2022/10/10 04:46:32;;;;;;;2.20;1.23;;;5.20;99.90;5.00;100812.00;;;;4950536;28;116627;-60
2022/10/10 04:48:58;;;;;;;2.40;1.57;;;5.40;99.90;5.10;100818.00;;;;4949604;28;110163;-61
2022/10/10 04:51:23;;;;;;;1.43;1.27;;;5.20;99.90;5.10;100800.00;;;;4950222;28;102590;-61
2022/10/10 04:53:49;;;;;;;2.50;1.23;;;5.20;99.90;5.10;100801.00;;;;4955774;28;118842;-60
2022/10/10 04:56:15;;;;;;;1.43;1.33;;;5.20;99.90;5.10;100789.00;;;;4943239;28;109271;-59
2022/10/10 04:58:40;;;;;;;2.30;1.63;;;5.20;99.90;5.10;100798.00;;;;4947127;28;110691;-61
2022/10/10 05:01:06;;;;;;;4.73;1.57;;;5.20;99.90;5.10;100800.00;;;;4949554;28;109318;-60
2022/10/10 05:03:32;;;;;;;1.00;1.00;;;5.20;99.90;5.10;100798.00;;;;4948700;28;109029;-59
2022/10/10 05:05:57;;;;;;;1.50;1.40;;;5.30;99.90;5.10;100794.00;;;;4945973;28;117617;-60
2022/10/10 05:08:23;;;;;;;1.30;1.20;;;5.30;99.90;5.10;100788.00;;;;4950162;28;110362;-60
2022/10/10 05:10:52;;;;;;;1.10;1.10;;;5.20;99.90;5.10;100795.00;;;;4950776;28;88540;-60
2022/10/10 05:13:18;;;;;;;4.00;2.27;;;5.20;99.90;5.10;100793.00;;;;4949339;28;88240;-60
2022/10/10 05:15:44;;;;;;;1.53;1.33;;;5.60;99.90;5.10;100780.00;;;;4950939;28;118249;-60
2022/10/10 05:18:09;;;;;;;2.23;1.60;;;5.20;99.90;5.10;100779.00;;;;4949370;28;88566;-61
2022/10/10 05:20:35;;;;;;;1.83;1.57;;;5.30;99.90;5.10;100782.00;;;;4949135;28;107688;-61
2022/10/10 05:23:01;;;;;;;1.03;0.93;;;5.30;99.90;5.10;100784.00;;;;4953371;28;116913;-60
2022/10/10 05:25:28;;;;;;;1.43;1.30;;;5.30;99.90;5.10;100786.00;;;;4952029;28;88097;-60
2022/10/10 05:27:53;;;;;;;1.80;1.70;;;5.80;99.90;5.10;100790.00;;;;4954177;28;86998;-60
2022/10/10 05:30:19;;;;;;;3.80;2.00;;;5.20;99.90;5.10;100777.00;;;;4945615;28;87840;-59
2022/10/10 05:32:45;;;;;;;1.50;1.40;;;5.20;99.90;5.00;100775.00;;;;4944224;28;117334;-60
2022/10/10 05:35:11;;;;;;;1.60;1.50;;;5.20;99.90;5.00;100765.00;;;;4949871;28;88972;-59
2022/10/10 05:37:37;;;;;;;3.13;1.73;;;5.20;99.90;5.00;100773.00;;;;4953913;28;88002;-60
2022/10/10 05:40:03;;;;;;;1.97;1.67;;;5.20;99.90;4.90;100763.00;;;;4949292;28;88031;-60
2022/10/10 05:42:29;;;;;;;3.13;1.50;;;5.40;99.90;4.90;100763.00;;;;4949374;28;111504;-59
2022/10/10 05:44:54;;;;;;;1.93;1.37;;;5.10;99.90;4.90;100768.00;;;;4950271;28;117456;-60
2022/10/10 05:47:20;;;;;;;2.70;1.40;;;5.10;99.90;4.90;100767.00;;;;4945894;28;106071;-59
2022/10/10 05:49:46;;;;;;;1.30;1.20;;;5.10;99.90;4.80;100759.00;;;;4941921;28;87880;-60
2022/10/10 05:52:11;;;;;;;2.53;1.60;;;5.10;99.90;4.80;100764.00;;;;4949043;28;87577;-60
2022/10/10 05:54:37;;;;;;;2.03;1.20;;;5.00;99.90;4.80;100756.00;;;;4946288;28;116166;-60
2022/10/10 05:57:03;;;;;;;1.30;1.20;;;5.00;99.90;4.80;100755.00;;;;4951431;28;98902;-60
2022/10/10 05:59:28;;;;;;;1.30;1.20;;;5.00;99.90;4.80;100755.00;;;;4951348;28;102246;-59
2022/10/10 06:01:54;;;;;;;1.77;1.63;;;5.00;99.90;4.80;100745.00;;;;4947183;28;88286;-60
2022/10/10 06:04:22;;;;;;;2.07;1.80;;;5.00;99.90;4.80;100753.00;;;;4951380;28;107712;-60
2022/10/10 06:06:48;;;;;;;1.73;1.50;;;4.90;99.90;4.80;100754.00;;;;4951832;28;87727;-59
2022/10/10 06:09:14;;;;;;;1.67;1.10;;;5.00;99.90;4.80;100750.00;;;;4949125;28;87586;-60
2022/10/10 06:11:40;;;;;;;3.30;1.87;;;5.00;99.90;4.80;100752.00;;;;4949584;28;117971;-60
2022/10/10 06:14:06;;;;;;;3.53;1.80;;;5.00;99.90;4.80;100753.00;;;;4940835;28;104464;-59
2022/10/10 06:16:32;;;;;;;1.30;1.13;;;4.60;99.90;4.80;100752.00;;;;4946427;28;97063;-60
2022/10/10 06:18:58;;;;;;;1.90;1.37;;;5.00;99.90;4.90;100754.00;;;;4951571;28;87913;-59
2022/10/10 06:21:24;;;;;;;3.33;1.93;;;5.00;99.90;4.90;100753.00;;;;4950649;28;104323;-60
2022/10/10 06:23:50;;;;;;;2.50;1.60;;;5.10;99.90;4.90;100750.00;;;;4949376;28;89813;-59
2022/10/10 06:26:16;;;;;;;6.37;1.40;;;5.10;99.90;5.00;100745.00;;;;4950495;28;87788;-60
2022/10/10 06:28:42;;;;;;;5.00;1.90;;;5.10;99.90;5.00;100744.00;;;;4948771;28;87700;-59
2022/10/10 06:31:10;;;;;;;4.03;1.63;;;5.20;99.90;5.10;100751.00;;;;4943352;28;112465;-60
2022/10/10 06:33:36;;;;;;;4.93;2.10;;;5.20;99.90;5.30;100750.00;;;;4952861;28;88966;-57
2022/10/10 06:36:07;;;;;;;2.47;2.27;;;5.40;99.90;5.60;100756.00;;;;4946801;28;87766;-60
2022/10/10 06:38:37;;;;;;;4.03;2.10;;;5.60;99.90;5.80;100749.00;;;;4949354;28;87919;-60
2022/10/10 06:41:04;;;;;;;2.13;1.93;;;6.10;99.90;6.10;100752.00;;;;4948437;28;87991;-60
2022/10/10 06:43:31;;;;;;;1.63;1.53;;;6.40;99.90;6.50;100753.00;;;;4947812;28;88015;-60
2022/10/10 06:45:56;;;;;;;2.60;1.70;;;6.40;99.90;6.80;100749.00;;;;4945962;28;87932;-60
2022/10/10 06:48:22;;;;;;;1.57;1.23;;;7.20;99.90;7.20;100757.00;;;;4946538;28;108240;-59
2022/10/10 06:51:07;;;;;;;1.90;1.53;;;7.20;99.90;7.50;100752.00;;;;4942932;28;116430;-58
2022/10/10 06:53:34;;;;;;;3.13;1.73;;;7.40;99.90;7.80;100767.00;;;;4953677;28;88532;-59
2022/10/10 06:55:59;;;;;;;1.40;1.17;;;7.70;99.90;8.10;100765.00;;;;4956332;28;87827;-59
2022/10/10 06:58:27;;;;;;;2.63;1.80;;;8.00;99.90;8.40;100771.00;;;;4947141;28;87791;-60
2022/10/10 07:00:57;;;;;;;1.10;1.00;;;8.30;99.90;8.70;100776.00;;;;4952656;28;88557;-59
2022/10/10 07:03:23;;;;;;;2.60;1.77;;;8.60;99.90;9.10;100766.00;;;;4954333;28;111071;-60
2022/10/10 07:05:58;;;;;;;1.70;1.60;;;9.00;99.90;9.50;100775.00;;;;4950066;28;110660;-59
2022/10/10 07:08:25;;;;;;;1.60;1.30;;;9.40;99.90;9.90;100771.00;;;;4954691;28;87862;-61
2022/10/10 07:10:51;;;;;;;1.83;1.30;;;9.70;99.90;10.10;100769.00;;;;4951788;28;96291;-61
2022/10/10 07:13:18;;;;;;;1.33;1.10;;;10.00;99.90;10.30;100770.00;;;;4953662;28;90450;-61
2022/10/10 07:15:43;;;;;;;1.70;1.40;;;10.20;99.90;10.40;100776.00;;;;4955352;28;110184;-61
2022/10/10 07:18:09;;;;;;;3.80;1.40;;;10.40;99.90;10.40;100785.00;;;;4955752;28;108042;-60
2022/10/10 07:20:36;;;;;;;1.60;1.47;;;10.40;99.90;10.50;100779.00;;;;4950129;28;88783;-60
2022/10/10 07:23:03;;;;;;;6.07;1.30;;;10.50;99.90;10.70;100782.00;;;;4953164;28;88728;-61
2022/10/10 07:25:29;;;;;;;3.23;1.40;;;10.60;99.90;10.90;100779.00;;;;4951669;28;87979;-61
2022/10/10 07:27:55;;;;;;;1.60;1.23;;;10.80;99.90;11.10;100774.00;;;;4953915;28;87962;-61
2022/10/10 07:30:23;;;;;;;1.70;1.37;;;11.00;99.90;11.30;100775.00;;;;4953200;28;88142;-61
2022/10/10 07:32:49;;;;;;;1.40;1.23;;;11.20;99.90;11.50;100781.00;;;;4947922;28;95572;-60
2022/10/10 07:35:15;;;;;;;0.97;0.90;;;11.40;99.90;11.80;100771.00;;;;4952498;28;89060;-61
2022/10/10 07:37:41;;;;;;;1.50;1.00;;;11.60;99.90;12.00;100771.00;;;;4955341;28;88990;-60
2022/10/10 07:40:08;;;;;;;1.47;1.00;;;11.80;99.90;12.10;100778.00;;;;4952832;28;117686;-60
2022/10/10 07:42:34;;;;;;;1.63;0.73;;;12.00;99.90;12.30;100776.00;;;;4951224;28;88198;-59
2022/10/10 07:45:00;;;;;;;3.67;1.27;;;12.20;99.90;12.40;100778.00;;;;4953057;28;87811;-61
2022/10/10 07:47:25;;;;;;;0.70;0.70;;;12.30;99.90;12.40;100780.00;;;;4950385;28;109447;-59
2022/10/10 07:49:51;;;;;;;3.90;1.13;;;12.30;99.90;12.40;100778.00;;;;4945832;28;116267;-61
2022/10/10 07:52:16;;;;;;;0.90;0.83;;;12.30;99.90;12.40;100776.00;;;;4940645;28;117296;-60
2022/10/10 07:54:42;;;;;;;2.50;1.30;;;12.40;99.90;12.40;100775.00;;;;4944634;28;110310;-60
2022/10/10 07:57:08;;;;;;;1.87;1.27;;;12.40;99.90;12.40;100778.00;;;;4951203;28;87964;-60
2022/10/10 07:59:34;;;;;;;2.37;1.47;;;12.40;99.90;12.40;100775.00;;;;4953991;28;117354;-61
2022/10/10 08:01:59;;;;;;;0.93;0.93;;;12.50;99.90;12.40;100777.00;;;;4953222;28;117956;-61
2022/10/10 08:04:25;;;;;;;1.53;1.10;;;12.40;99.90;12.40;100777.00;;;;4948279;28;109969;-60
2022/10/10 08:06:50;;;;;;;0.67;0.67;;;12.40;99.90;12.40;100777.00;;;;4953149;28;109267;-61
2022/10/10 08:09:16;;;;;;;2.10;1.50;;;12.40;99.90;12.50;100770.00;;;;4947852;28;117022;-61
2022/10/10 08:11:42;;;;;;;2.87;1.53;;;12.40;99.90;12.50;100773.00;;;;4946070;28;117283;-59
2022/10/10 08:14:08;;;;;;;1.10;1.00;;;12.50;99.90;12.60;100774.00;;;;4954464;28;109145;-60
2022/10/10 08:16:34;;;;;;;1.20;1.00;;;12.50;99.90;12.70;100774.00;;;;4946669;28;87887;-60
2022/10/10 08:18:59;;;;;;;2.07;1.23;;;12.60;99.90;12.80;100778.00;;;;4951976;28;108341;-60
2022/10/10 08:21:25;;;;;;;2.03;0.97;;;12.70;99.90;12.90;100772.00;;;;4954604;28;87819;-60
2022/10/10 08:23:51;;;;;;;1.10;0.90;;;12.80;99.90;13.00;100775.00;;;;4943540;28;110707;-60
2022/10/10 08:26:18;;;;;;;4.93;1.10;;;12.90;99.90;13.10;100776.00;;;;4946591;28;108779;-61
2022/10/10 08:28:44;;;;;;;1.40;1.27;;;13.00;99.90;13.20;100770.00;;;;4951382;28;87927;-61
2022/10/10 08:31:14;;;;;;;1.63;1.33;;;13.10;99.90;13.30;100778.00;;;;4948885;28;88364;-60
2022/10/10 08:33:42;;;;;;;1.10;0.87;;;13.30;99.90;13.50;100776.00;;;;4966567;28;87719;-60
2022/10/10 08:36:21;;;;;;;0.80;0.73;;;13.30;99.90;13.60;100780.00;;;;4954065;28;87827;-61
2022/10/10 08:38:47;;;;;;;1.50;1.13;;;13.50;99.90;13.60;100772.00;;;;4946422;28;112016;-61
2022/10/10 08:41:34;;;;;;;1.17;1.00;;;13.50;99.90;13.70;100779.00;;;;4953443;28;89044;-61
2022/10/10 08:44:06;;;;;;;1.60;1.33;;;13.60;99.90;13.80;100771.00;;;;4950219;28;103396;-60
2022/10/10 08:46:40;;;;;;;2.10;1.20;;;13.70;99.90;13.80;100783.00;;;;4950938;28;97095;-61
2022/10/10 08:49:21;;;;;;;1.50;1.27;;;13.70;99.50;13.90;100779.00;;;;4949098;28;89000;-60
2022/10/10 08:51:57;;;;;;;1.40;1.27;;;13.80;99.70;14.00;100776.00;;;;4948017;28;88816;-61
2022/10/10 08:54:25;;;;;;;1.43;1.00;;;13.90;98.80;14.00;100772.00;;;;4951708;28;89011;-60
2022/10/10 08:56:56;;;;;;;1.20;1.10;;;13.90;98.30;14.00;100756.00;;;;4953643;28;87833;-61
2022/10/10 08:59:28;;;;;;;1.67;1.30;;;13.90;98.00;14.00;100763.00;;;;4947612;28;88526;-61
2022/10/10 09:02:28;;;;;;;1.17;1.07;;;14.30;97.80;14.10;100763.00;;;;4952322;28;87977;-60
2022/10/10 09:04:56;;;;;;;1.50;1.10;;;14.00;97.60;14.10;100759.00;;;;4952376;28;88067;-60
2022/10/10 09:08:10;;;;;;;0.80;0.80;;;14.00;97.40;14.20;100766.00;;;;4946454;28;87699;-60
2022/10/10 09:10:55;;;;;;;1.20;1.10;;;14.10;96.30;14.20;100762.00;;;;4978720;28;87113;-60
2022/10/10 09:13:34;;;;;;;2.37;1.40;;;14.10;96.40;14.20;100756.00;;;;4946764;28;87788;-60
2022/10/10 09:16:07;;;;;;;2.00;0.90;;;14.20;96.10;14.30;100746.00;;;;4952479;28;87817;-58
2022/10/10 09:19:34;;;;;;;1.10;1.00;;;14.20;95.90;14.30;100760.00;;;;4952946;28;88848;-61
2022/10/10 09:22:08;;;;;;;1.23;0.90;;;14.20;95.60;14.30;100753.00;;;;4946101;28;87906;-60
2022/10/10 09:24:46;;;;;;;2.37;1.63;;;14.30;95.30;14.40;100754.00;;;;4949855;28;101877;-60
2022/10/10 09:27:20;;;;;;;1.10;0.63;;;14.30;95.70;14.50;100757.00;;;;4948186;28;87621;-61
2022/10/10 09:29:50;;;;;;;2.33;0.88;;;14.40;95.00;14.50;100757.00;;;;4955482;28;93211;-61
2022/10/10 09:32:24;;;;;;;1.30;1.13;;;14.40;95.00;14.60;100758.00;;;;4952363;28;88835;-60
2022/10/10 09:35:13;;;;;;;1.50;0.93;;;14.50;95.10;14.70;100762.00;;;;4951119;28;87937;-60
2022/10/10 09:37:40;;;;;;;1.57;0.80;;;14.50;95.10;14.70;100760.00;;;;4967885;28;92759;-60
2022/10/10 09:40:29;;;;;;;1.30;0.70;;;14.60;94.80;14.80;100750.00;;;;4951876;28;87713;-60
2022/10/10 09:42:55;;;;;;;2.38;1.27;;;14.70;93.80;14.80;100750.00;;;;4964723;28;89135;-59
2022/10/10 09:45:38;;;;;;;2.83;0.82;;;14.70;93.40;14.90;100751.00;;;;4950783;28;88695;-60
2022/10/10 09:48:04;;;;;;;3.17;1.13;;;14.80;93.10;15.00;100745.00;;;;4965509;28;93769;-60
2022/10/10 09:50:30;;;;;;;1.60;1.02;;;14.80;93.10;15.00;100749.00;;;;4947926;28;98469;-60
2022/10/10 09:52:57;;;;;;;1.05;0.70;;;14.90;93.30;15.10;100749.00;;;;4955194;28;117128;-58
2022/10/10 09:55:36;;;;;;;1.17;1.00;;;15.00;93.10;15.30;100736.00;;;;4966609;28;88721;-61
2022/10/10 09:58:28;;;;;;;0.77;0.77;;;15.10;93.00;15.60;100737.00;;;;4966831;28;91548;-61
2022/10/10 10:01:09;;;;;;;1.13;0.90;;;15.30;93.10;16.00;100741.00;;;;4954054;28;88227;-60
2022/10/10 10:03:34;;;;;;;1.88;0.65;;;15.70;92.00;16.10;100739.00;;;;4946012;28;87088;-60
2022/10/10 10:06:01;;;;;;;2.40;1.00;;;15.90;91.00;16.20;100733.00;;;;4949141;28;116261;-61
2022/10/10 10:08:33;;;;;;;1.38;1.20;;;16.00;90.00;16.20;100730.00;;;;4952957;28;87736;-60
2022/10/10 10:11:00;;;;;;;2.70;1.48;;;16.10;90.20;16.20;100721.00;;;;4950561;28;99156;-60
2022/10/10 10:13:34;;;;;;;0.80;0.80;;;16.10;89.80;16.20;100723.00;;;;4948910;28;88554;-58
2022/10/10 10:16:12;;;;;;;1.40;1.27;;;16.10;88.40;16.10;100732.00;;;;4949254;28;87862;-60
2022/10/10 10:18:41;;;;;;;1.73;1.27;;;16.00;89.30;16.10;100732.00;;;;4947157;28;110800;-60
2022/10/10 10:21:11;;;;;;;2.60;1.73;;;16.00;89.00;16.00;100739.00;;;;4954717;28;88141;-60
2022/10/10 10:24:00;;;;;;;0.65;0.65;;;15.90;88.80;16.00;100736.00;;;;4947594;28;111576;-60
2022/10/10 10:26:29;;;;;;;1.15;1.00;;;15.90;89.10;15.90;100745.00;;;;4947584;28;87794;-60
2022/10/10 10:28:56;;;;;;;1.33;0.77;;;15.80;89.70;16.00;100747.00;;;;4950440;28;87198;-60
2022/10/10 10:31:55;;;;;;;1.58;1.20;;;15.80;89.80;15.90;100743.00;;;;4952585;28;87889;-60
2022/10/10 10:34:47;;;;;;;2.20;1.13;;;15.80;89.00;15.80;100738.00;;;;4967680;28;111028;-61
2022/10/10 10:37:46;;;;;;;2.75;1.48;;;15.80;88.40;15.80;100740.00;;;;4952660;28;101047;-60
2022/10/10 10:40:34;;;;;;;0.38;0.38;;;15.80;88.70;15.80;100740.00;;;;4950053;28;87781;-60
2022/10/10 10:43:46;;;;;;;1.08;0.98;;;15.70;88.90;15.80;100731.00;;;;4954840;28;94187;-60
2022/10/10 10:46:43;;;;;;;1.15;0.95;;;15.70;88.80;15.70;100733.00;;;;4953074;28;88362;-59
2022/10/10 10:49:35;;;;;;;1.42;0.77;;;15.70;88.90;15.70;100729.00;;;;4944028;28;88439;-59
2022/10/10 10:52:16;;;;;;;4.50;0.95;;;15.60;88.70;15.70;100724.00;;;;4954310;28;106602;-60
2022/10/10 10:55:11;;;;;;;1.35;0.90;;;15.60;89.00;15.80;100725.00;;;;4970686;28;100597;-58
2022/10/10 10:57:53;;;;;;;2.25;1.15;;;15.60;88.80;15.90;100718.00;;;;4956581;28;108320;-61
2022/10/10 11:00:19;;;;;;;1.67;1.48;;;15.70;89.50;16.00;100723.00;;;;4949049;28;109906;-60
2022/10/10 11:03:23;;;;;;;1.33;1.17;;;15.80;89.90;16.20;100721.00;;;;4952355;28;110092;-59
2022/10/10 11:06:08;;;;;;;1.88;1.15;;;16.00;90.10;16.30;100714.00;;;;4948841;28;90622;-60
2022/10/10 11:08:43;;;;;;;1.88;0.95;;;16.10;88.60;16.40;100708.00;;;;4952481;28;88710;-59
2022/10/10 11:11:36;;;;;;;6.32;1.17;;;16.30;88.00;16.60;100705.00;;;;4946399;28;107557;-58